This is the latest recevied weather packets stored in our database for station/object YC0ACE-13. If no packets are shown the sender has not sent any weather packets the latest 10 day(s).
| Time | Temp. | Humidity | Pressure | Rain* | Wind** | Luminosity | Snow |
|---|---|---|---|---|---|---|---|
| 1777531525 | 31.11° C | 70% | 1013.5 hPa | 0 mm | - | 189 W/m² | - |
| 1777531224 | 30.56° C | 71% | 1013.9 hPa | 0 mm | - | 187 W/m² | - |
| 1777530924 | 30.56° C | 71% | 1013.9 hPa | 0 mm | - | 192 W/m² | - |
| 1777530625 | 30.56° C | 72% | 1013.9 hPa | 0 mm | - | 150 W/m² | - |
| 1777530324 | 30.56° C | 71% | 1013.9 hPa | 0 mm | - | 156 W/m² | - |
| 1777530024 | 30.56° C | 71% | 1013.9 hPa | 0 mm | - | 149 W/m² | - |
| 1777529725 | 31.11° C | 71% | 1013.9 hPa | 0 mm | - | 129 W/m² | - |
| 1777529424 | 31.67° C | 69% | 1013.9 hPa | 0 mm | - | 110 W/m² | - |
| 1777529126 | 32.22° C | 68% | 1013.9 hPa | 0 mm | - | 96 W/m² | - |
| 1777528825 | 32.78° C | 62% | 1013.9 hPa | 0 mm | - | 77 W/m² | - |
| 1777528525 | 33.33° C | 58% | 1014.2 hPa | 0 mm | - | 82 W/m² | - |
| 1777528225 | 33.33° C | 59% | 1013.9 hPa | 0 mm | - | 114 W/m² | - |
| 1777527925 | 33.33° C | 58% | 1013.9 hPa | 0 mm | - | 118 W/m² | - |
| 1777527625 | 33.33° C | 58% | 1013.9 hPa | 0 mm | - | 142 W/m² | - |
| 1777527325 | 33.89° C | 56% | 1013.9 hPa | 0 mm | - | 237 W/m² | - |
| 1777527024 | 34.44° C | 54% | 1014.2 hPa | 0 mm | - | 683 W/m² | - |
| 1777526725 | 33.89° C | 56% | 1014.2 hPa | 0 mm | - | 745 W/m² | - |
| 1777526424 | 33.89° C | 55% | 1014.6 hPa | 0 mm | - | 712 W/m² | - |
| 1777526124 | 33.33° C | 58% | 1014.6 hPa | 0 mm | - | 746 W/m² | - |
| 1777525825 | 32.78° C | 60% | 1014.6 hPa | 0 mm | - | 692 W/m² | - |
| 1777525525 | 32.78° C | 59% | 1014.6 hPa | 0 mm | - | 546 W/m² | - |
| 1777525224 | 32.78° C | 60% | 1014.6 hPa | 0 mm | - | 278 W/m² | - |
| 1777524925 | 32.78° C | 60% | 1014.6 hPa | 0 mm | - | 495 W/m² | - |
| 1777524625 | 32.22° C | 61% | 1014.6 hPa | 0 mm | - | 750 W/m² | - |
| 1777524327 | 32.22° C | 62% | 1014.9 hPa | 0 mm | - | 462 W/m² | - |
* Rain latest hour (hover to see other rain measurements)
** Current wind speed in m/s (hover to see current wind gust speed)